createdAt,value
2018-01-15T00:01:32.654Z,12.57
2018-01-15T00:04:00.764Z,11.57
2018-01-15T00:06:28.225Z,11.67
2018-01-15T00:08:55.689Z,12.87
2018-01-15T00:11:23.480Z,11.30
2018-01-15T00:13:50.905Z,11.57
2018-01-15T00:16:18.368Z,11.10
2018-01-15T00:18:46.429Z,11.20
2018-01-15T00:21:13.897Z,10.77
2018-01-15T00:23:41.354Z,12.90
2018-01-15T00:26:09.114Z,12.00
2018-01-15T00:28:36.572Z,12.23
2018-01-15T00:31:04.031Z,12.73
2018-01-15T00:33:31.753Z,12.97
2018-01-15T00:35:59.558Z,13.10
2018-01-15T00:38:27.012Z,13.10
2018-01-15T00:40:54.786Z,12.60
2018-01-15T00:43:22.243Z,13.47
2018-01-15T00:45:49.755Z,12.00
2018-01-15T00:48:17.780Z,14.50
2018-01-15T00:50:45.238Z,13.77
2018-01-15T00:53:12.694Z,14.10
2018-01-15T00:55:40.298Z,14.43
2018-01-15T00:58:07.760Z,12.77
2018-01-15T01:00:35.238Z,13.87
2018-01-15T01:03:03.156Z,14.00
2018-01-15T01:05:30.612Z,13.63
2018-01-15T01:07:58.069Z,12.10
2018-01-15T01:10:25.858Z,13.20
2018-01-15T01:12:53.614Z,13.07
2018-01-15T01:15:21.077Z,13.00
2018-01-15T01:17:48.537Z,12.77
2018-01-15T01:20:16.299Z,15.03
2018-01-15T01:22:43.760Z,13.00
2018-01-15T01:25:11.220Z,12.90
2018-01-15T01:27:39.298Z,12.80
2018-01-15T01:30:06.757Z,11.70
2018-01-15T01:32:34.220Z,11.90
2018-01-15T01:35:02.289Z,11.47
2018-01-15T01:37:30.436Z,12.77
2018-01-15T01:39:57.885Z,13.00
2018-01-15T01:42:25.902Z,11.83
2018-01-15T01:44:53.357Z,12.10
2018-01-15T01:47:20.818Z,13.40
2018-01-15T01:49:48.888Z,12.60
2018-01-15T01:52:16.357Z,12.30
2018-01-15T01:54:43.826Z,11.83
2018-01-15T01:57:11.571Z,11.17
2018-01-15T01:59:39.021Z,14.20
2018-01-15T02:02:06.477Z,12.00
2018-01-15T02:04:34.252Z,12.40
2018-01-15T02:07:01.703Z,12.43
2018-01-15T02:09:29.162Z,12.97
2018-01-15T02:11:56.942Z,10.73
2018-01-15T02:14:24.395Z,12.90
2018-01-15T02:16:51.848Z,12.07
2018-01-15T02:19:19.940Z,14.70
2018-01-15T02:21:47.392Z,12.47
2018-01-15T02:24:14.856Z,12.80
2018-01-15T02:26:42.636Z,12.73
2018-01-15T02:29:10.106Z,13.07
2018-01-15T02:31:37.561Z,13.37
2018-01-15T02:34:05.926Z,13.53
2018-01-15T02:36:33.372Z,13.20
2018-01-15T02:39:01.243Z,11.50
2018-01-15T02:41:28.933Z,14.03
2018-01-15T02:43:56.391Z,14.43
2018-01-15T02:46:23.849Z,11.23
2018-01-15T02:48:51.926Z,13.40
2018-01-15T02:51:19.380Z,15.10
2018-01-15T02:53:46.839Z,13.67
2018-01-15T02:56:14.611Z,12.93
2018-01-15T02:58:42.061Z,13.30
2018-01-15T03:01:09.512Z,14.10
2018-01-15T03:03:37.293Z,14.10
2018-01-15T03:06:04.747Z,13.30
2018-01-15T03:08:32.202Z,14.70
2018-01-15T03:10:59.981Z,15.00
2018-01-15T03:13:27.440Z,13.73
2018-01-15T03:15:54.900Z,12.40
2018-01-15T03:18:22.593Z,13.50
2018-01-15T03:20:50.056Z,14.37
2018-01-15T03:23:17.513Z,14.47
2018-01-15T03:25:45.356Z,13.50
2018-01-15T03:28:12.825Z,12.80
2018-01-15T03:30:40.294Z,13.77
2018-01-15T03:33:08.049Z,13.47
2018-01-15T03:35:35.505Z,14.97
2018-01-15T03:38:02.960Z,12.67
2018-01-15T03:40:34.643Z,12.70
2018-01-15T03:43:02.105Z,13.13
2018-01-15T03:45:29.556Z,15.53
2018-01-15T03:47:57.656Z,15.30
2018-01-15T03:50:25.119Z,12.57
2018-01-15T03:52:52.588Z,14.33
2018-01-15T03:55:20.247Z,13.77
2018-01-15T03:57:47.701Z,13.83
2018-01-15T04:00:15.161Z,15.00
2018-01-15T04:02:43.089Z,16.30
2018-01-15T04:05:10.543Z,14.43
2018-01-15T04:07:37.998Z,14.27
2018-01-15T04:10:05.776Z,16.03
2018-01-15T04:12:33.287Z,15.97
2018-01-15T04:15:00.745Z,16.47
2018-01-15T04:17:28.768Z,16.77
2018-01-15T04:19:56.240Z,17.73
2018-01-15T04:22:23.700Z,15.17
2018-01-15T04:24:51.309Z,16.23
2018-01-15T04:27:18.769Z,18.97
2018-01-15T04:29:46.224Z,16.47
2018-01-15T04:32:13.847Z,16.30
2018-01-15T04:34:41.311Z,16.10
2018-01-15T04:37:08.775Z,16.53
2018-01-15T04:39:36.530Z,15.37
2018-01-15T04:42:04.679Z,15.97
2018-01-15T04:44:32.149Z,15.43
2018-01-15T04:46:59.899Z,16.80
2018-01-15T04:49:27.357Z,17.67
2018-01-15T04:51:54.812Z,16.33
2018-01-15T04:54:22.521Z,16.10
2018-01-15T04:56:49.980Z,16.37
2018-01-15T04:59:17.443Z,16.60
2018-01-15T05:01:45.517Z,15.77
2018-01-15T05:04:12.976Z,14.97
2018-01-15T05:06:40.438Z,17.03
2018-01-15T05:09:08.191Z,17.30
2018-01-15T05:11:35.662Z,16.83
2018-01-15T05:14:03.120Z,16.80
2018-01-15T05:16:30.900Z,16.37
2018-01-15T05:18:58.357Z,16.27
2018-01-15T05:21:25.824Z,15.33
2018-01-15T05:23:53.874Z,15.43
2018-01-15T05:26:21.344Z,19.00
2018-01-15T05:28:48.808Z,15.90
2018-01-15T05:31:16.573Z,16.87
2018-01-15T05:33:44.040Z,17.43
2018-01-15T05:36:11.501Z,20.13
2018-01-15T05:38:39.259Z,16.93
2018-01-15T05:41:06.719Z,19.60
2018-01-15T05:43:34.410Z,17.77
2018-01-15T05:46:02.136Z,18.13
2018-01-15T05:48:29.606Z,18.97
2018-01-15T05:50:57.071Z,18.10
2018-01-15T05:53:24.929Z,18.80
2018-01-15T05:55:52.404Z,18.43
2018-01-15T05:58:19.864Z,19.27
2018-01-15T06:00:47.633Z,18.80
2018-01-15T06:03:15.101Z,19.03
2018-01-15T06:05:42.573Z,19.43
2018-01-15T06:08:10.617Z,20.00
2018-01-15T06:10:38.077Z,18.87
2018-01-15T06:13:05.550Z,17.70
2018-01-15T06:15:33.610Z,20.63
2018-01-15T06:18:01.077Z,18.40
2018-01-15T06:20:28.536Z,20.47
2018-01-15T06:22:56.424Z,17.97
2018-01-15T06:25:23.885Z,18.70
2018-01-15T06:27:51.348Z,19.53
2018-01-15T06:30:19.284Z,20.10
2018-01-15T06:32:46.744Z,22.20
2018-01-15T06:35:15.393Z,20.57
2018-01-15T06:37:43.216Z,21.50
2018-01-15T06:40:10.672Z,21.87
2018-01-15T06:42:38.137Z,21.23
2018-01-15T06:45:06.558Z,20.40
2018-01-15T06:47:34.033Z,22.10
2018-01-15T06:50:01.492Z,28.80
2018-01-15T06:52:29.189Z,24.10
2018-01-15T06:54:56.645Z,31.07
2018-01-15T06:57:24.105Z,23.77
2018-01-15T06:59:51.882Z,21.67
2018-01-15T07:02:19.356Z,19.70
2018-01-15T07:04:46.811Z,20.87
2018-01-15T07:07:14.889Z,20.17
2018-01-15T07:09:42.346Z,20.50
2018-01-15T07:12:09.805Z,20.00
2018-01-15T07:14:37.561Z,20.20
2018-01-15T07:17:05.016Z,20.17
2018-01-15T07:19:32.473Z,18.90
2018-01-15T07:22:00.253Z,18.97
2018-01-15T07:24:27.725Z,19.50
2018-01-15T07:26:55.185Z,20.23
2018-01-15T07:29:22.931Z,20.10
2018-01-15T07:31:50.401Z,20.80
2018-01-15T07:34:17.863Z,20.87
2018-01-15T07:36:45.618Z,20.27
2018-01-15T07:39:13.081Z,20.20
2018-01-15T07:41:40.540Z,22.10
2018-01-15T07:44:08.317Z,20.47
2018-01-15T07:46:36.149Z,21.60
2018-01-15T07:49:03.614Z,20.07
2018-01-15T07:51:31.921Z,21.43
2018-01-15T07:53:59.383Z,22.67
2018-01-15T07:56:26.845Z,19.97
2018-01-15T07:58:54.655Z,21.67
2018-01-15T08:01:22.212Z,19.63
2018-01-15T08:03:49.675Z,19.53
2018-01-15T08:06:17.350Z,21.73
2018-01-15T08:08:44.814Z,19.00
2018-01-15T08:11:12.277Z,18.30
2018-01-15T08:13:39.873Z,18.37
2018-01-15T08:16:07.377Z,18.20
2018-01-15T08:18:34.815Z,19.33
2018-01-15T08:21:02.673Z,19.10
2018-01-15T08:23:30.144Z,18.63
2018-01-15T08:25:57.592Z,19.50
2018-01-15T08:28:25.257Z,19.33
2018-01-15T08:30:52.712Z,17.20
2018-01-15T08:33:20.206Z,19.10
2018-01-15T08:35:48.040Z,19.10
2018-01-15T08:38:15.502Z,16.50
2018-01-15T08:40:42.949Z,16.47
2018-01-15T08:43:10.672Z,18.00
2018-01-15T08:45:38.124Z,16.27
2018-01-15T08:48:06.332Z,19.90
2018-01-15T08:50:34.278Z,17.73
2018-01-15T08:53:01.735Z,17.80
2018-01-15T08:55:29.199Z,15.70
2018-01-15T08:57:56.964Z,15.93
2018-01-15T09:00:24.413Z,15.10
2018-01-15T09:02:51.871Z,16.67
2018-01-15T09:05:19.705Z,16.67
2018-01-15T09:07:47.159Z,16.47
2018-01-15T09:10:14.605Z,16.17
2018-01-15T09:12:42.388Z,16.07
2018-01-15T09:15:09.835Z,16.10
2018-01-15T09:17:37.289Z,18.00
2018-01-15T09:20:05.077Z,16.23
2018-01-15T09:22:32.524Z,16.90
2018-01-15T09:24:59.976Z,16.77
2018-01-15T09:27:27.763Z,15.70
2018-01-15T09:29:55.212Z,15.77
2018-01-15T09:32:22.670Z,16.97
2018-01-15T09:34:50.444Z,15.77
2018-01-15T09:37:17.897Z,16.00
2018-01-15T09:39:45.350Z,16.77
2018-01-15T09:42:13.137Z,16.57
2018-01-15T09:44:40.939Z,16.53
2018-01-15T09:47:08.392Z,16.47
2018-01-15T09:49:37.677Z,15.97
2018-01-15T09:52:05.138Z,14.90
2018-01-15T09:54:32.585Z,14.63
2018-01-15T09:57:00.657Z,15.10
2018-01-15T09:59:28.109Z,15.50
2018-01-15T10:01:55.556Z,13.60
2018-01-15T10:04:23.357Z,12.87
2018-01-15T10:06:50.817Z,12.77
2018-01-15T10:09:18.269Z,13.97
2018-01-15T10:11:46.660Z,14.37
2018-01-15T10:14:14.109Z,14.70
2018-01-15T10:16:41.557Z,15.07
2018-01-15T10:19:09.336Z,15.67
2018-01-15T10:21:36.802Z,13.77
2018-01-15T10:24:04.257Z,14.90
2018-01-15T10:26:32.044Z,16.80
2018-01-15T10:28:59.495Z,15.53
2018-01-15T10:31:26.953Z,16.47
2018-01-15T10:33:54.697Z,15.63
2018-01-15T10:36:22.149Z,12.90
2018-01-15T10:38:49.617Z,13.47
2018-01-15T10:41:17.394Z,13.50
2018-01-15T10:43:44.864Z,16.60
2018-01-15T10:46:12.404Z,13.97
2018-01-15T10:48:40.394Z,14.60
2018-01-15T10:51:08.540Z,14.60
2018-01-15T10:53:35.988Z,14.90
2018-01-15T10:56:04.017Z,14.10
2018-01-15T10:58:31.472Z,14.03
2018-01-15T11:00:58.927Z,14.60
2018-01-15T11:03:26.698Z,14.57
2018-01-15T11:05:54.148Z,14.40
2018-01-15T11:08:21.613Z,13.50
2018-01-15T11:10:49.720Z,15.43
2018-01-15T11:13:17.169Z,14.07
2018-01-15T11:15:44.629Z,14.70
2018-01-15T11:18:12.369Z,14.00
2018-01-15T11:20:39.817Z,14.67
2018-01-15T11:23:07.280Z,15.67
2018-01-15T11:25:35.097Z,15.10
2018-01-15T11:28:02.521Z,15.50
2018-01-15T11:30:29.996Z,15.53
2018-01-15T11:32:57.755Z,16.53
2018-01-15T11:35:25.204Z,14.93
2018-01-15T11:37:52.648Z,13.97
2018-01-15T11:40:20.430Z,16.67
2018-01-15T11:42:47.885Z,16.60
2018-01-15T11:45:15.328Z,17.90
2018-01-15T11:47:43.123Z,16.27
2018-01-15T11:50:10.576Z,14.87
2018-01-15T11:52:38.410Z,13.93
2018-01-15T11:55:06.428Z,14.30
2018-01-15T11:57:33.881Z,16.03
2018-01-15T12:00:01.336Z,16.37
2018-01-15T12:02:29.109Z,14.60
2018-01-15T12:04:56.574Z,16.73
2018-01-15T12:07:24.033Z,15.07
2018-01-15T12:09:51.797Z,16.90
2018-01-15T12:12:19.248Z,16.57
2018-01-15T12:14:46.692Z,16.83
2018-01-15T12:17:14.482Z,15.93
2018-01-15T12:19:41.941Z,16.40
2018-01-15T12:22:09.405Z,14.47
2018-01-15T12:24:37.781Z,14.93
2018-01-15T12:27:05.229Z,18.10
2018-01-15T12:29:32.673Z,15.90
2018-01-15T12:32:00.462Z,13.90
2018-01-15T12:34:27.930Z,16.43
2018-01-15T12:36:56.717Z,16.47
2018-01-15T12:39:24.692Z,16.00
2018-01-15T12:41:52.135Z,15.60
2018-01-15T12:44:19.588Z,14.40
2018-01-15T12:46:47.369Z,14.67
2018-01-15T12:49:14.822Z,14.97
2018-01-15T12:51:42.280Z,17.97
2018-01-15T12:54:10.673Z,16.13
2018-01-15T12:56:38.120Z,16.93
2018-01-15T12:59:05.563Z,16.30
2018-01-15T13:01:33.368Z,17.17
2018-01-15T13:04:00.824Z,15.40
2018-01-15T13:06:40.586Z,17.30
2018-01-15T13:09:08.040Z,17.03
2018-01-15T13:11:35.513Z,17.03
2018-01-15T13:14:03.264Z,16.00
2018-01-15T13:16:30.728Z,15.90
2018-01-15T13:18:58.188Z,14.93
2018-01-15T13:21:25.949Z,14.40
2018-01-15T13:23:53.406Z,13.40
2018-01-15T13:26:20.853Z,14.33
2018-01-15T13:28:48.561Z,14.70
2018-01-15T13:31:16.024Z,12.93
2018-01-15T13:33:43.484Z,13.10
2018-01-15T13:36:11.320Z,13.90
2018-01-15T13:38:38.772Z,12.57
2018-01-15T13:41:06.220Z,14.50
2018-01-15T13:43:34.012Z,14.93
2018-01-15T13:46:01.481Z,14.87
2018-01-15T13:48:28.939Z,13.77
2018-01-15T13:50:56.701Z,14.37
2018-01-15T13:53:24.148Z,14.27
2018-01-15T13:55:51.689Z,15.87
2018-01-15T13:58:19.468Z,14.23
2018-01-15T14:00:46.921Z,15.43
2018-01-15T14:03:14.372Z,14.60
2018-01-15T14:05:42.088Z,15.60
2018-01-15T14:08:09.542Z,16.47
2018-01-15T14:10:37.001Z,15.73
2018-01-15T14:13:04.753Z,17.00
2018-01-15T14:15:32.209Z,15.53
2018-01-15T14:17:59.665Z,16.13
2018-01-15T14:20:27.655Z,17.47
2018-01-15T14:22:55.105Z,17.53
2018-01-15T14:25:22.556Z,16.77
2018-01-15T14:27:50.844Z,15.70
2018-01-15T14:30:18.293Z,16.43
2018-01-15T14:32:45.756Z,16.80
2018-01-15T14:35:13.777Z,16.60
2018-01-15T14:37:41.249Z,15.50
2018-01-15T14:40:08.709Z,15.33
2018-01-15T14:42:36.342Z,17.17
2018-01-15T14:45:03.804Z,17.53
2018-01-15T14:47:31.257Z,17.37
2018-01-15T14:49:59.421Z,15.10
2018-01-15T14:52:26.881Z,16.23
2018-01-15T14:54:54.344Z,15.53
2018-01-15T14:57:22.720Z,16.83
2018-01-15T14:59:50.168Z,17.07
2018-01-15T15:02:17.644Z,16.40
2018-01-15T15:04:45.413Z,15.40
2018-01-15T15:07:12.873Z,17.13
2018-01-15T15:09:40.340Z,16.03
2018-01-15T15:12:08.119Z,16.00
2018-01-15T15:14:35.585Z,17.67
2018-01-15T15:17:03.030Z,16.20
2018-01-15T15:19:30.788Z,15.70
2018-01-15T15:21:58.236Z,16.47
2018-01-15T15:24:25.701Z,15.90
2018-01-15T15:26:53.474Z,15.07
2018-01-15T15:29:20.932Z,16.90
2018-01-15T15:31:48.388Z,15.63
2018-01-15T15:34:16.160Z,16.33
2018-01-15T15:36:43.607Z,16.40
2018-01-15T15:39:11.056Z,16.70
2018-01-15T15:41:38.838Z,15.33
2018-01-15T15:44:06.292Z,16.13
2018-01-15T15:46:33.745Z,16.97
2018-01-15T15:49:01.531Z,17.37
2018-01-15T15:51:28.985Z,16.80
2018-01-15T15:53:56.435Z,16.50
2018-01-15T15:56:24.229Z,16.60
2018-01-15T15:58:52.066Z,16.20
2018-01-15T16:01:19.530Z,17.03
2018-01-15T16:03:47.517Z,15.57
2018-01-15T16:06:14.978Z,18.47
2018-01-15T16:08:42.434Z,17.60
2018-01-15T16:11:10.214Z,17.83
2018-01-15T16:13:37.661Z,17.47
2018-01-15T16:16:05.109Z,18.77
2018-01-15T16:18:32.893Z,17.40
2018-01-15T16:21:00.343Z,19.63
2018-01-15T16:23:27.797Z,18.50
2018-01-15T16:25:55.589Z,17.00
2018-01-15T16:28:23.056Z,19.67
2018-01-15T16:30:50.514Z,19.13
2018-01-15T16:33:18.265Z,18.53
2018-01-15T16:35:46.332Z,16.40
2018-01-15T16:38:13.789Z,19.30
2018-01-15T16:40:41.515Z,19.37
2018-01-15T16:43:09.909Z,19.33
2018-01-15T16:45:37.487Z,18.20
2018-01-15T16:48:05.498Z,20.30
2018-01-15T16:50:33.476Z,21.47
2018-01-15T16:53:01.085Z,20.93
2018-01-15T16:55:28.974Z,20.10
2018-01-15T16:57:56.432Z,20.33
2018-01-15T17:00:25.320Z,24.43
2018-01-15T17:02:54.007Z,22.60
2018-01-15T17:05:21.476Z,22.13
2018-01-15T17:07:48.937Z,22.60
2018-01-15T17:10:17.242Z,21.87
2018-01-15T17:12:44.758Z,23.70
2018-01-15T17:15:12.497Z,22.77
2018-01-15T17:17:41.564Z,23.77
2018-01-15T17:20:09.065Z,22.50
2018-01-15T17:22:36.520Z,24.67
2018-01-15T17:25:04.502Z,23.60
2018-01-15T17:27:31.961Z,24.10
2018-01-15T17:29:59.466Z,24.27
2018-01-15T17:32:27.138Z,23.13
2018-01-15T17:34:54.617Z,25.40
2018-01-15T17:37:22.081Z,22.83
2018-01-15T17:39:50.215Z,23.30
2018-01-15T17:42:17.960Z,24.60
2018-01-15T17:44:45.508Z,25.73
2018-01-15T17:47:14.307Z,25.80
2018-01-15T17:49:41.773Z,23.70
2018-01-15T17:52:09.253Z,24.77
2018-01-15T17:54:37.045Z,24.90
2018-01-15T17:57:04.778Z,23.83
2018-01-15T17:59:32.232Z,22.17
2018-01-15T18:02:00.966Z,24.17
2018-01-15T18:04:28.426Z,23.37
2018-01-15T18:06:55.896Z,22.93
2018-01-15T18:09:23.761Z,22.70
2018-01-15T18:11:51.222Z,21.43
2018-01-15T18:14:18.675Z,23.23
2018-01-15T18:16:46.642Z,21.43
2018-01-15T18:19:14.113Z,24.67
2018-01-15T18:21:41.577Z,22.80
2018-01-15T18:24:09.345Z,22.87
2018-01-15T18:26:36.812Z,23.40
2018-01-15T18:29:04.267Z,22.80
2018-01-15T18:31:32.030Z,23.23
2018-01-15T18:33:59.501Z,24.77
2018-01-15T18:36:26.975Z,23.80
2018-01-15T18:38:54.712Z,22.87
2018-01-15T18:41:22.164Z,23.20
2018-01-15T18:43:49.628Z,23.73
2018-01-15T18:46:17.216Z,22.43
2018-01-15T18:48:44.686Z,23.70
2018-01-15T18:51:12.159Z,27.43
2018-01-15T18:53:40.156Z,24.80
2018-01-15T18:56:07.621Z,25.10
2018-01-15T18:58:35.081Z,23.70
2018-01-15T19:01:02.780Z,21.60
2018-01-15T19:03:30.620Z,23.87
2018-01-15T19:05:58.076Z,20.77
2018-01-15T19:08:25.806Z,21.37
2018-01-15T19:10:53.263Z,21.70
2018-01-15T19:13:20.729Z,21.37
2018-01-15T19:15:48.450Z,23.77
2018-01-15T19:18:15.919Z,24.87
2018-01-15T19:20:43.383Z,22.93
2018-01-15T19:23:11.738Z,23.17
2018-01-15T19:25:39.208Z,22.30
2018-01-15T19:28:06.669Z,28.60
2018-01-15T19:30:34.556Z,19.67
2018-01-15T19:33:02.016Z,21.70
2018-01-15T19:35:35.452Z,20.33
2018-01-15T19:38:03.384Z,23.10
2018-01-15T19:40:30.870Z,21.03
2018-01-15T19:43:00.756Z,21.43
2018-01-15T19:45:34.278Z,21.37
2018-01-15T19:48:07.315Z,19.10
2018-01-15T19:50:40.846Z,19.50
2018-01-15T19:56:15.061Z,18.30
2018-01-15T19:58:48.984Z,18.00
2018-01-15T20:01:22.286Z,20.17
2018-01-15T20:03:55.857Z,18.07
2018-01-15T20:06:29.187Z,18.47
2018-01-15T20:09:02.161Z,17.20
2018-01-15T20:11:29.948Z,18.80
2018-01-15T20:13:57.412Z,19.27
2018-01-15T20:16:24.872Z,19.43
2018-01-15T20:18:52.638Z,15.53
2018-01-15T20:21:20.096Z,21.00
2018-01-15T20:23:47.565Z,18.57
2018-01-15T20:26:15.387Z,18.40
2018-01-15T20:28:42.856Z,17.23
2018-01-15T20:31:10.336Z,18.70
2018-01-15T20:33:38.064Z,18.10
2018-01-15T20:36:05.785Z,18.90
2018-01-15T20:38:33.291Z,20.30
2018-01-15T20:41:01.051Z,20.83
2018-01-15T20:43:28.534Z,20.50
2018-01-15T20:45:56.152Z,19.63
2018-01-15T20:48:24.027Z,19.57
2018-01-15T20:50:51.505Z,20.23
2018-01-15T20:53:18.987Z,19.93
2018-01-15T20:55:46.732Z,18.63
2018-01-15T20:58:14.208Z,20.77
2018-01-15T21:00:41.669Z,20.87
2018-01-15T21:03:09.681Z,18.50
2018-01-15T21:05:39.077Z,17.90
2018-01-15T21:08:06.537Z,19.40
2018-01-15T21:10:34.525Z,19.20
2018-01-15T21:13:01.994Z,17.60
2018-01-15T21:15:29.457Z,17.73
2018-01-15T21:17:57.227Z,16.87
2018-01-15T21:20:24.681Z,17.00
2018-01-15T21:22:52.157Z,18.67
2018-01-15T21:25:19.909Z,20.73
2018-01-15T21:27:48.851Z,17.80
2018-01-15T21:30:16.333Z,18.10
2018-01-15T21:32:44.115Z,22.47
2018-01-15T21:35:11.580Z,19.10
2018-01-15T21:37:39.060Z,18.63
2018-01-15T21:40:07.412Z,18.50
2018-01-15T21:42:34.919Z,17.53
2018-01-15T21:45:02.349Z,19.10
2018-01-15T21:47:30.126Z,18.80
2018-01-15T21:49:57.604Z,17.80
2018-01-15T21:52:25.085Z,18.10
2018-01-15T21:54:53.112Z,18.40
2018-01-15T21:57:20.584Z,16.90
2018-01-15T21:59:48.045Z,19.13
2018-01-15T22:02:15.784Z,18.00
2018-01-15T22:04:43.263Z,18.00
2018-01-15T22:07:11.084Z,18.90
2018-01-15T22:09:39.093Z,20.43
2018-01-15T22:12:06.560Z,18.07
2018-01-15T22:14:34.032Z,18.10
2018-01-15T22:17:01.786Z,22.00
2018-01-15T22:19:29.248Z,17.40
2018-01-15T22:21:56.721Z,19.10
2018-01-15T22:24:24.456Z,19.90
2018-01-15T22:29:37.202Z,20.30
2018-01-15T22:32:04.677Z,21.17
2018-01-15T22:34:32.141Z,21.27
2018-01-15T22:36:59.932Z,20.70
2018-01-15T22:39:27.408Z,20.00
2018-01-15T22:41:54.862Z,22.43
2018-01-15T22:44:22.571Z,22.30
2018-01-15T22:46:50.034Z,20.03
2018-01-15T22:49:17.498Z,22.03
2018-01-15T22:51:45.574Z,21.57
2018-01-15T22:54:13.081Z,20.67
2018-01-15T22:56:40.544Z,20.30
2018-01-15T22:59:08.265Z,20.17
2018-01-15T23:01:35.721Z,18.27
2018-01-15T23:04:03.191Z,17.87
2018-01-15T23:06:30.916Z,20.17
2018-01-15T23:08:59.103Z,19.87
2018-01-15T23:11:26.560Z,18.07
2018-01-15T23:13:54.289Z,19.47
2018-01-15T23:16:21.747Z,20.10
2018-01-15T23:18:49.209Z,20.40
2018-01-15T23:21:16.924Z,20.80
2018-01-15T23:23:44.380Z,18.77
2018-01-15T23:26:11.836Z,17.40
2018-01-15T23:28:40.251Z,20.07
2018-01-15T23:31:07.709Z,22.47
2018-01-15T23:33:35.160Z,19.73
2018-01-15T23:36:02.920Z,18.60
2018-01-15T23:38:30.372Z,18.20
2018-01-15T23:40:57.829Z,20.03
2018-01-15T23:43:25.544Z,18.50
2018-01-15T23:45:53.019Z,23.43
2018-01-15T23:48:20.477Z,17.80
2018-01-15T23:50:48.200Z,18.63
2018-01-15T23:53:15.649Z,15.60
2018-01-15T23:55:43.112Z,17.10
2018-01-15T23:58:10.973Z,18.70
